createdAt,value
2023-04-22T00:04:15.146Z,66.28
2023-04-22T00:09:17.314Z,66.07
2023-04-22T00:14:19.214Z,66.08
2023-04-22T00:19:21.950Z,66.05
2023-04-22T00:24:23.671Z,65.90
2023-04-22T00:29:26.003Z,65.87
2023-04-22T00:34:27.940Z,65.82
2023-04-22T00:39:30.182Z,66.26
2023-04-22T00:44:32.705Z,66.18
2023-04-22T00:49:36.289Z,65.98
2023-04-22T00:54:38.174Z,65.99
2023-04-22T00:59:40.226Z,66.04
2023-04-22T01:04:42.577Z,66.18
2023-04-22T01:09:44.359Z,66.17
2023-04-22T01:14:46.284Z,65.80
2023-04-22T01:19:48.793Z,65.92
2023-04-22T01:24:50.886Z,65.89
2023-04-22T01:29:52.880Z,66.25
2023-04-22T01:34:54.772Z,66.33
2023-04-22T01:39:58.356Z,66.05
2023-04-22T01:45:00.149Z,66.12
2023-04-22T01:50:01.912Z,66.22
2023-04-22T01:55:03.889Z,66.04
2023-04-22T02:00:06.698Z,66.11
2023-04-22T02:05:14.185Z,65.99
2023-04-22T02:10:16.033Z,66.07
2023-04-22T02:15:17.916Z,65.84
2023-04-22T02:20:19.826Z,66.15
2023-04-22T02:25:21.617Z,65.93
2023-04-22T02:30:25.076Z,66.56
2023-04-22T02:35:27.762Z,66.64
2023-04-22T02:40:29.526Z,66.64
2023-04-22T02:45:31.398Z,66.65
2023-04-22T02:50:33.265Z,66.43
2023-04-22T02:55:35.097Z,66.42
2023-04-22T03:00:36.932Z,66.25
2023-04-22T03:05:38.772Z,66.41
2023-04-22T03:10:40.856Z,66.29
2023-04-22T03:15:42.752Z,66.62
2023-04-22T03:20:44.532Z,66.57
2023-04-22T03:25:46.291Z,66.75
2023-04-22T03:30:48.605Z,66.86
2023-04-22T03:35:50.487Z,66.53
2023-04-22T03:40:52.927Z,66.58
2023-04-22T03:46:09.711Z,66.51
2023-04-22T03:51:15.688Z,66.47
2023-04-22T03:56:17.811Z,66.34
2023-04-22T04:01:21.362Z,66.31
2023-04-22T04:06:27.129Z,66.82
2023-04-22T04:11:28.940Z,66.79
2023-04-22T04:16:32.446Z,66.74
2023-04-22T04:21:42.365Z,66.53
2023-04-22T04:26:44.796Z,66.33
2023-04-22T04:31:52.741Z,66.23
2023-04-22T04:36:56.171Z,66.35
2023-04-22T04:42:04.673Z,66.38
2023-04-22T04:47:15.149Z,67.48
2023-04-22T04:52:17.490Z,67.11
2023-04-22T04:57:19.743Z,67.12
2023-04-22T05:02:22.274Z,67.23
2023-04-22T05:07:24.303Z,66.91
2023-04-22T05:12:28.406Z,66.55
2023-04-22T05:17:30.851Z,66.93
2023-04-22T05:22:34.982Z,66.88
2023-04-22T05:27:37.046Z,66.93
2023-04-22T05:32:39.814Z,66.71
2023-04-22T05:37:41.919Z,66.39
2023-04-22T05:42:43.817Z,65.98
2023-04-22T05:47:46.516Z,65.63
2023-04-22T05:52:48.793Z,65.21
2023-04-22T05:57:52.330Z,64.36
2023-04-22T06:03:12.544Z,63.81
2023-04-22T06:08:16.259Z,63.47
2023-04-22T06:13:17.984Z,63.25
2023-04-22T06:18:20.012Z,62.79
2023-04-22T06:23:22.241Z,62.61
2023-04-22T06:28:24.318Z,63.00
2023-04-22T06:33:29.952Z,62.93
2023-04-22T06:38:31.948Z,62.86
2023-04-22T06:43:51.962Z,63.46
2023-04-22T06:48:53.898Z,63.24
2023-04-22T06:54:13.615Z,63.29
2023-04-22T06:59:15.460Z,62.93
2023-04-22T07:04:17.266Z,62.63
2023-04-22T07:09:19.526Z,62.08
2023-04-22T07:14:22.288Z,61.75
2023-04-22T07:19:24.276Z,62.08
2023-04-22T07:24:26.183Z,61.70
2023-04-22T07:29:28.144Z,60.82
2023-04-22T07:34:29.908Z,60.64
2023-04-22T07:39:31.633Z,58.34
2023-04-22T07:44:33.382Z,56.26
2023-04-22T07:49:35.171Z,55.64
2023-04-22T07:54:37.199Z,55.06
2023-04-22T07:59:40.020Z,54.06
2023-04-22T08:04:42.061Z,52.64
2023-04-22T08:09:43.929Z,50.94
2023-04-22T08:14:45.790Z,50.30
2023-04-22T08:19:49.035Z,49.00
2023-04-22T08:24:51.101Z,48.46
2023-04-22T08:29:52.865Z,47.14
2023-04-22T08:35:01.374Z,46.96
2023-04-22T08:40:07.193Z,46.98
2023-04-22T08:45:09.981Z,46.51
2023-04-22T08:50:11.930Z,46.47
2023-04-22T08:55:13.653Z,46.61
2023-04-22T09:00:16.385Z,45.62
2023-04-22T09:05:24.721Z,45.64
2023-04-22T09:10:28.491Z,45.61
2023-04-22T09:15:30.370Z,44.46
2023-04-22T09:20:32.161Z,43.40
2023-04-22T09:25:37.222Z,42.45
2023-04-22T09:30:39.047Z,42.84
2023-04-22T09:35:42.113Z,40.11
2023-04-22T09:40:44.757Z,38.59
2023-04-22T09:45:46.565Z,38.00
2023-04-22T09:50:50.882Z,37.17
2023-04-22T09:55:54.885Z,35.76
2023-04-22T10:00:59.222Z,36.40
2023-04-22T10:06:01.042Z,34.70
2023-04-22T10:11:02.999Z,35.55
2023-04-22T10:16:05.304Z,34.26
2023-04-22T10:21:07.460Z,34.64
2023-04-22T10:26:09.566Z,32.95
2023-04-22T10:31:23.773Z,32.21
2023-04-22T10:36:26.083Z,33.06
2023-04-22T10:41:35.302Z,32.21
2023-04-22T10:46:45.468Z,32.36
2023-04-22T10:51:52.481Z,32.16
2023-04-22T10:57:22.789Z,31.68
2023-04-22T11:02:24.736Z,33.38
2023-04-22T11:07:27.030Z,32.84
2023-04-22T11:12:44.008Z,31.63
2023-04-22T11:17:48.258Z,32.85
2023-04-22T11:22:57.695Z,31.39
2023-04-22T11:28:00.007Z,32.25
2023-04-22T11:33:01.861Z,32.98
2023-04-22T11:38:08.743Z,32.73
2023-04-22T11:43:10.809Z,33.31
2023-04-22T11:48:12.747Z,33.05
2023-04-22T11:53:19.348Z,32.87
2023-04-22T11:58:27.270Z,33.46
2023-04-22T12:03:30.408Z,33.59
2023-04-22T12:08:44.517Z,33.42
2023-04-22T12:13:46.846Z,33.75
2023-04-22T12:18:51.578Z,32.97
2023-04-22T12:23:55.625Z,32.39
2023-04-22T12:28:59.016Z,32.92
2023-04-22T12:34:00.886Z,33.58
2023-04-22T12:39:02.686Z,34.25
2023-04-22T12:44:04.495Z,34.09
2023-04-22T12:49:06.247Z,33.96
2023-04-22T12:54:08.039Z,33.83
2023-04-22T12:59:09.821Z,34.01
2023-04-22T13:04:11.664Z,33.97
2023-04-22T13:09:13.458Z,33.99
2023-04-22T13:14:15.509Z,33.84
2023-04-22T13:19:17.253Z,33.97
2023-04-22T13:24:19.053Z,34.20
2023-04-22T13:29:20.782Z,34.16
2023-04-22T13:34:22.504Z,34.05
2023-04-22T13:39:27.487Z,33.26
2023-04-22T13:44:29.421Z,34.48
2023-04-22T13:49:31.407Z,34.75
2023-04-22T13:54:33.148Z,35.02
2023-04-22T13:59:37.918Z,35.75
2023-04-22T14:04:39.656Z,35.71
2023-04-22T14:09:41.673Z,35.58
2023-04-22T14:14:43.856Z,36.08
2023-04-22T14:19:45.710Z,35.80
2023-04-22T14:24:48.807Z,35.84
2023-04-22T14:29:52.509Z,37.53
2023-04-22T14:34:54.305Z,38.80
2023-04-22T14:39:57.459Z,39.58
2023-04-22T14:44:59.413Z,39.80
2023-04-22T14:50:01.436Z,40.04
2023-04-22T14:55:15.439Z,40.18
2023-04-22T15:00:21.732Z,39.77
2023-04-22T15:05:23.747Z,40.32
2023-04-22T15:10:26.710Z,40.23
2023-04-22T15:15:28.618Z,40.49
2023-04-22T15:20:30.472Z,40.38
2023-04-22T15:25:32.267Z,40.40
2023-04-22T15:30:34.029Z,40.25
2023-04-22T15:35:35.765Z,40.44
2023-04-22T15:40:37.495Z,40.24
2023-04-22T15:45:39.360Z,40.34
2023-04-22T15:50:41.111Z,40.49
2023-04-22T15:55:43.086Z,40.38
2023-04-22T16:00:45.141Z,40.25
2023-04-22T16:05:47.083Z,39.92
2023-04-22T16:10:48.895Z,39.80
2023-04-22T16:15:50.805Z,40.19
2023-04-22T16:20:53.352Z,40.77
2023-04-22T16:25:55.199Z,40.77
2023-04-22T16:30:57.309Z,41.15
2023-04-22T16:35:59.184Z,41.40
2023-04-22T16:41:01.016Z,41.69
2023-04-22T16:46:03.789Z,41.80
2023-04-22T16:51:05.837Z,42.23
2023-04-22T16:56:07.608Z,41.92
2023-04-22T17:01:09.814Z,42.37
2023-04-22T17:06:11.598Z,42.87
2023-04-22T17:11:13.369Z,42.33
2023-04-22T17:16:15.268Z,42.50
2023-04-22T17:21:17.197Z,42.78
2023-04-22T17:26:19.077Z,43.81
2023-04-22T17:31:20.930Z,43.59
2023-04-22T17:36:22.758Z,44.29
2023-04-22T17:41:24.525Z,44.58
2023-04-22T17:46:26.320Z,45.45
2023-04-22T17:51:28.168Z,45.85
2023-04-22T17:56:29.938Z,45.73
2023-04-22T18:01:31.911Z,44.84
2023-04-22T18:06:33.844Z,44.73
2023-04-22T18:11:35.704Z,45.06
2023-04-22T18:16:37.558Z,45.04
2023-04-22T18:21:49.584Z,45.11
2023-04-22T18:26:58.987Z,45.03
2023-04-22T18:32:00.946Z,45.52
2023-04-22T18:37:03.039Z,45.90
2023-04-22T18:42:04.969Z,45.93
2023-04-22T18:47:06.712Z,46.23
2023-04-22T18:52:08.736Z,46.93
2023-04-22T18:57:10.552Z,47.21
2023-04-22T19:02:13.663Z,47.87
2023-04-22T19:07:15.581Z,48.45
2023-04-22T19:12:19.505Z,48.50
2023-04-22T19:17:21.338Z,49.17
2023-04-22T19:22:23.262Z,49.55
2023-04-22T19:27:25.564Z,50.46
2023-04-22T19:32:27.444Z,50.43
2023-04-22T19:37:29.267Z,51.21
2023-04-22T19:42:31.032Z,51.92
2023-04-22T19:47:32.935Z,51.72
2023-04-22T19:52:35.508Z,52.63
2023-04-22T19:57:38.875Z,52.65
2023-04-22T20:02:41.095Z,52.91
2023-04-22T20:07:43.771Z,53.39
2023-04-22T20:12:46.107Z,53.93
2023-04-22T20:17:48.152Z,54.61
2023-04-22T20:22:52.945Z,55.22
2023-04-22T20:27:55.241Z,55.80
2023-04-22T20:32:57.685Z,55.91
2023-04-22T20:38:00.749Z,56.23
2023-04-22T20:43:03.354Z,56.40
2023-04-22T20:48:05.361Z,56.60
2023-04-22T20:53:07.292Z,57.08
2023-04-22T20:58:09.270Z,56.57
2023-04-22T21:03:14.707Z,56.87
2023-04-22T21:08:25.095Z,57.23
2023-04-22T21:13:27.455Z,58.00
2023-04-22T21:18:32.334Z,56.93
2023-04-22T21:23:34.607Z,57.32
2023-04-22T21:28:37.311Z,57.77
2023-04-22T21:33:39.088Z,58.52
2023-04-22T21:38:41.034Z,58.46
2023-04-22T21:43:43.188Z,58.39
2023-04-22T21:48:44.913Z,59.30
2023-04-22T21:53:46.733Z,58.98
2023-04-22T21:58:48.475Z,59.40
2023-04-22T22:03:50.695Z,59.62
2023-04-22T22:08:53.346Z,59.45
2023-04-22T22:13:55.180Z,59.85
2023-04-22T22:18:57.908Z,60.56
2023-04-22T22:23:59.630Z,61.05
2023-04-22T22:29:01.393Z,61.39
2023-04-22T22:34:03.210Z,61.26
2023-04-22T22:39:05.175Z,61.83
2023-04-22T22:44:06.964Z,62.06
2023-04-22T22:49:09.333Z,62.18
2023-04-22T22:54:11.229Z,62.55
2023-04-22T22:59:13.014Z,62.56
2023-04-22T23:04:15.796Z,62.97
2023-04-22T23:09:19.115Z,63.58
2023-04-22T23:14:26.895Z,64.26
2023-04-22T23:19:29.008Z,64.04
2023-04-22T23:24:31.092Z,64.06
2023-04-22T23:29:33.114Z,63.66
2023-04-22T23:34:35.775Z,63.63
2023-04-22T23:39:39.104Z,63.47
2023-04-22T23:44:41.188Z,63.28
2023-04-22T23:49:43.305Z,63.64
2023-04-22T23:54:45.421Z,63.72
2023-04-22T23:59:47.404Z,63.47
